Time;durP1;ratioP1;P1;durP2;ratioP2;P2;SDS_P1;SDS_P2;PMS_P1;PMS_P2;Temp;Humidity;BMP_temperature;BMP_pressure;BME280_temperature;BME280_humidity;BME280_pressure;Samples;Min_cycle;Max_cycle;Signal;HPM_P1;HPM_P2
2023/03/14 00:04:09;;;;;;;12.37;8.13;;;8.20;99.90;;;;;;9894234;30;20199;-79
2023/03/14 00:09:30;;;;;;;10.07;6.80;;;8.30;99.90;;;;;;9907080;30;20615;-79
2023/03/14 00:14:51;;;;;;;11.30;6.93;;;8.30;99.90;;;;;;9931852;30;20205;-79
2023/03/14 00:20:12;;;;;;;15.43;7.77;;;8.30;99.90;;;;;;9928045;30;20219;-79
2023/03/14 00:25:34;;;;;;;11.33;7.27;;;8.30;99.90;;;;;;9911499;29;20234;-80
2023/03/14 00:30:55;;;;;;;12.83;7.63;;;8.30;99.90;;;;;;9923603;30;20204;-79
2023/03/14 00:36:17;;;;;;;11.10;7.43;;;8.20;99.90;;;;;;9893081;30;20560;-80
2023/03/14 00:41:38;;;;;;;10.40;6.90;;;8.30;99.90;;;;;;9925343;30;20219;-80
2023/03/14 00:46:59;;;;;;;10.93;7.50;;;8.20;99.90;;;;;;9930545;30;20237;-80
2023/03/14 00:52:21;;;;;;;9.93;6.47;;;8.20;99.90;;;;;;9918546;30;20225;-79
2023/03/14 00:57:42;;;;;;;11.70;7.10;;;8.20;99.90;;;;;;9900784;30;20246;-79
2023/03/14 01:03:04;;;;;;;14.93;7.10;;;8.20;99.90;;;;;;9871551;30;20203;-80
2023/03/14 01:08:25;;;;;;;10.90;7.23;;;8.10;99.90;;;;;;9886452;30;20242;-80
2023/03/14 01:13:47;;;;;;;12.70;6.70;;;8.10;99.90;;;;;;9851299;30;20215;-80
2023/03/14 01:19:09;;;;;;;12.10;7.00;;;8.10;99.90;;;;;;9892760;30;20274;-80
2023/03/14 01:24:30;;;;;;;11.50;7.07;;;8.10;99.90;;;;;;9889406;30;20216;-80
2023/03/14 01:29:51;;;;;;;13.13;6.60;;;8.10;99.90;;;;;;9892168;30;20209;-79
2023/03/14 01:35:12;;;;;;;18.07;6.90;;;8.10;99.90;;;;;;9890234;30;20439;-80
2023/03/14 01:40:42;;;;;;;10.73;7.13;;;8.10;99.90;;;;;;9891404;30;20203;-78
2023/03/14 01:46:04;;;;;;;10.40;6.43;;;8.10;99.90;;;;;;9878135;30;20462;-79
2023/03/14 01:52:10;;;;;;;10.40;7.00;;;8.20;99.90;;;;;;9889856;30;20400;-80
2023/03/14 01:57:45;;;;;;;12.43;6.60;;;8.10;99.90;;;;;;9802411;30;20248;-79
2023/03/14 02:03:14;;;;;;;10.43;5.90;;;8.10;99.90;;;;;;9766289;30;20579;-80
2023/03/14 02:08:37;;;;;;;14.43;6.70;;;8.10;99.90;;;;;;9781593;30;20503;-79
2023/03/14 02:14:03;;;;;;;10.83;7.13;;;8.10;99.90;;;;;;9751564;30;20219;-80
2023/03/14 02:19:58;;;;;;;8.37;5.70;;;8.10;99.90;;;;;;9784874;30;20226;-79
2023/03/14 02:25:50;;;;;;;9.77;5.40;;;8.20;99.90;;;;;;9838797;30;20242;-78
2023/03/14 02:31:12;;;;;;;8.00;5.30;;;8.20;99.90;;;;;;9884445;30;20216;-79
2023/03/14 02:36:34;;;;;;;7.97;4.97;;;8.20;99.90;;;;;;9897586;30;20244;-79
2023/03/14 02:41:55;;;;;;;9.80;6.40;;;8.20;99.90;;;;;;9898047;30;20211;-78
2023/03/14 02:47:18;;;;;;;11.10;6.87;;;8.20;99.90;;;;;;9897715;30;20284;-78
2023/03/14 02:52:40;;;;;;;12.13;6.30;;;8.10;99.90;;;;;;9882966;30;20248;-79
2023/03/14 02:58:01;;;;;;;8.10;5.07;;;8.10;99.90;;;;;;9897041;30;20288;-77
2023/03/14 03:03:23;;;;;;;8.77;5.27;;;8.20;99.90;;;;;;9882140;30;20218;-79
2023/03/14 03:08:44;;;;;;;15.53;7.10;;;8.20;99.90;;;;;;9883215;30;20454;-79
2023/03/14 03:14:05;;;;;;;8.23;5.40;;;8.20;99.90;;;;;;9896087;30;20259;-79
2023/03/14 03:19:27;;;;;;;9.53;5.30;;;8.30;99.90;;;;;;9895223;30;20207;-80
2023/03/14 03:24:49;;;;;;;9.67;5.00;;;8.30;99.90;;;;;;9882756;30;20222;-79
2023/03/14 03:30:10;;;;;;;6.90;4.97;;;8.40;99.90;;;;;;9895612;30;20208;-80
2023/03/14 03:35:32;;;;;;;9.10;4.87;;;8.40;99.90;;;;;;9894177;30;20214;-79
2023/03/14 03:40:54;;;;;;;8.97;5.90;;;8.50;99.90;;;;;;9882401;30;20215;-78
2023/03/14 03:46:18;;;;;;;8.97;5.70;;;8.50;99.90;;;;;;9894840;30;20255;-79
2023/03/14 03:51:40;;;;;;;9.27;4.63;;;8.50;99.90;;;;;;9894134;30;20282;-79
2023/03/14 03:57:01;;;;;;;7.60;4.93;;;8.50;99.90;;;;;;9881925;30;20444;-80
2023/03/14 04:02:22;;;;;;;9.30;5.63;;;8.50;99.90;;;;;;9893992;30;20212;-80
2023/03/14 04:07:45;;;;;;;8.90;6.30;;;8.50;99.90;;;;;;9893996;30;20487;-80
2023/03/14 04:13:11;;;;;;;8.07;5.97;;;8.60;99.90;;;;;;9882246;30;20201;-79
2023/03/14 04:18:33;;;;;;;8.57;4.97;;;8.60;99.90;;;;;;9892425;30;20216;-79
2023/03/14 04:23:55;;;;;;;7.63;4.80;;;8.60;99.90;;;;;;9880372;30;20299;-80
2023/03/14 04:29:17;;;;;;;5.13;3.90;;;8.50;99.90;;;;;;9893457;30;20238;-78
2023/03/14 04:34:39;;;;;;;5.87;3.77;;;8.50;99.90;;;;;;9879634;30;20242;-80
2023/03/14 04:40:01;;;;;;;6.67;3.63;;;8.50;99.90;;;;;;9892612;30;20290;-78
2023/03/14 04:45:25;;;;;;;5.83;3.90;;;8.50;99.90;;;;;;9892735;30;20375;-78
2023/03/14 04:50:49;;;;;;;6.73;4.20;;;8.50;99.90;;;;;;9891410;30;20423;-78
2023/03/14 04:56:12;;;;;;;7.67;4.47;;;8.40;99.90;;;;;;9891731;30;20248;-79
2023/03/14 05:01:36;;;;;;;7.70;5.13;;;8.40;99.90;;;;;;9879391;30;20207;-80
2023/03/14 05:07:15;;;;;;;8.40;4.83;;;8.40;99.90;;;;;;9855936;30;20244;-79
2023/03/14 05:12:52;;;;;;;8.07;4.57;;;8.30;99.90;;;;;;9855774;30;20198;-79
2023/03/14 05:18:24;;;;;;;12.97;6.40;;;8.30;99.90;;;;;;9870100;30;20375;-79
2023/03/14 05:23:58;;;;;;;13.73;6.97;;;8.30;99.90;;;;;;9891669;30;20509;-79
2023/03/14 05:29:40;;;;;;;6.93;4.47;;;8.40;99.90;;;;;;9890292;30;20301;-79
2023/03/14 05:35:21;;;;;;;9.93;5.63;;;8.30;99.90;;;;;;9889889;30;20217;-79
2023/03/14 05:40:57;;;;;;;13.10;7.23;;;8.40;99.90;;;;;;9892011;30;20280;-79
2023/03/14 05:46:48;;;;;;;7.53;4.93;;;8.40;99.90;;;;;;9889767;30;20318;-79
2023/03/14 05:52:28;;;;;;;12.73;7.90;;;8.50;99.90;;;;;;9886400;30;20212;-80
2023/03/14 05:58:03;;;;;;;10.33;6.07;;;8.60;99.90;;;;;;9854881;30;20256;-80
2023/03/14 06:03:47;;;;;;;6.60;4.37;;;8.70;99.90;;;;;;9889349;30;20539;-79
2023/03/14 06:09:09;;;;;;;9.30;5.67;;;8.70;99.90;;;;;;9890288;30;20229;-80
2023/03/14 06:14:32;;;;;;;4.33;3.17;;;8.80;99.90;;;;;;9890352;30;20222;-79
2023/03/14 06:19:54;;;;;;;4.87;2.60;;;8.90;99.90;;;;;;9876725;30;20208;-79
2023/03/14 06:25:15;;;;;;;11.83;8.50;;;8.90;99.90;;;;;;9890179;30;20272;-79
2023/03/14 06:30:39;;;;;;;4.70;3.00;;;9.00;99.90;;;;;;9889689;30;20205;-79
2023/03/14 06:36:03;;;;;;;4.30;2.70;;;9.10;99.90;;;;;;9869990;30;20234;-80
2023/03/14 06:41:26;;;;;;;11.53;6.70;;;9.10;99.90;;;;;;9889714;30;20203;-79
2023/03/14 06:46:47;;;;;;;13.73;9.47;;;9.10;99.90;;;;;;9876553;30;20241;-78
2023/03/14 06:52:08;;;;;;;15.97;9.90;;;9.10;99.90;;;;;;9888303;30;20214;-79
2023/03/14 06:57:30;;;;;;;20.80;11.60;;;9.10;99.90;;;;;;9876256;30;20242;-79
2023/03/14 07:02:51;;;;;;;17.63;8.83;;;9.10;99.90;;;;;;9861435;30;20216;-80
2023/03/14 07:08:18;;;;;;;12.80;6.37;;;9.20;99.90;;;;;;9877532;30;20237;-80
2023/03/14 07:13:40;;;;;;;11.93;6.33;;;9.20;99.90;;;;;;9895242;30;20208;-79
2023/03/14 07:19:02;;;;;;;13.27;7.40;;;9.30;99.90;;;;;;9894011;30;20210;-79
2023/03/14 07:24:24;;;;;;;16.10;7.87;;;9.40;99.90;;;;;;9895500;30;20268;-79
2023/03/14 07:29:46;;;;;;;12.87;8.23;;;9.50;99.90;;;;;;9894831;30;20528;-79
2023/03/14 07:35:08;;;;;;;16.60;10.93;;;9.60;99.90;;;;;;9893811;30;20520;-79
2023/03/14 07:40:32;;;;;;;15.13;8.07;;;9.60;99.90;;;;;;9894876;30;20205;-79
2023/03/14 07:45:54;;;;;;;42.40;17.23;;;9.80;99.90;;;;;;9893742;30;20198;-78
2023/03/14 07:51:19;;;;;;;23.53;12.73;;;9.90;99.90;;;;;;9893895;30;20238;-78
2023/03/14 07:56:40;;;;;;;12.77;9.50;;;10.10;99.90;;;;;;9895092;30;20239;-80
2023/03/14 08:02:01;;;;;;;21.07;10.50;;;10.20;99.90;;;;;;9893818;30;20216;-79
2023/03/14 08:07:22;;;;;;;10.17;5.87;;;10.30;99.90;;;;;;9879558;30;20357;-79
2023/03/14 08:12:44;;;;;;;11.90;7.47;;;10.20;99.90;;;;;;9890218;30;20251;-78
2023/03/14 08:18:05;;;;;;;11.50;7.57;;;10.30;99.90;;;;;;9885572;30;20259;-79
2023/03/14 08:23:27;;;;;;;13.37;8.73;;;10.30;99.90;;;;;;9859152;30;20226;-78
2023/03/14 08:28:48;;;;;;;20.50;8.13;;;10.30;99.90;;;;;;9881428;30;20229;-78
2023/03/14 08:34:09;;;;;;;8.90;6.13;;;10.20;99.90;;;;;;9887940;30;20477;-82
2023/03/14 08:39:30;;;;;;;8.17;5.50;;;10.30;99.90;;;;;;9886834;30;20210;-85
2023/03/14 08:44:52;;;;;;;13.60;9.07;;;10.40;99.90;;;;;;9886531;30;20262;-77
2023/03/14 08:50:13;;;;;;;8.20;5.40;;;10.50;99.90;;;;;;9886915;30;20248;-79
2023/03/14 08:55:36;;;;;;;9.73;5.40;;;10.60;99.90;;;;;;9878608;29;20262;-79
2023/03/14 09:00:57;;;;;;;7.60;5.33;;;10.60;99.90;;;;;;9884480;30;20218;-80
2023/03/14 09:06:19;;;;;;;8.63;5.83;;;10.60;99.90;;;;;;9886066;30;20231;-78
2023/03/14 09:11:40;;;;;;;6.03;4.90;;;10.50;99.90;;;;;;9891565;30;20220;-80
2023/03/14 09:17:03;;;;;;;6.17;4.73;;;10.40;99.90;;;;;;9873907;30;20220;-82
2023/03/14 09:22:24;;;;;;;9.77;5.50;;;10.40;99.90;;;;;;9882526;30;20248;-81
2023/03/14 09:27:46;;;;;;;5.87;4.17;;;10.40;99.90;;;;;;9860172;30;20236;-79
2023/03/14 09:33:07;;;;;;;6.80;5.13;;;10.40;99.90;;;;;;9883560;30;20471;-82
2023/03/14 09:38:28;;;;;;;8.23;5.17;;;10.40;99.90;;;;;;9887900;30;20244;-82
2023/03/14 09:44:01;;;;;;;7.33;5.17;;;10.50;99.90;;;;;;9884994;30;20260;-86
2023/03/14 09:49:30;;;;;;;12.17;7.60;;;10.70;99.90;;;;;;9872962;30;20353;-79
2023/03/14 09:54:59;;;;;;;10.07;6.10;;;10.90;99.90;;;;;;9897706;30;20237;-79
2023/03/14 10:00:23;;;;;;;9.80;5.40;;;10.90;99.90;;;;;;9886142;30;20271;-82
2023/03/14 10:05:45;;;;;;;10.90;6.53;;;10.90;99.90;;;;;;9895137;30;20217;-79
2023/03/14 10:11:09;;;;;;;9.13;5.13;;;10.90;99.90;;;;;;9885729;30;20204;-81
2023/03/14 10:16:42;;;;;;;5.60;3.70;;;10.90;99.90;;;;;;9877111;30;20272;-83
2023/03/14 10:22:05;;;;;;;5.37;4.10;;;10.80;99.90;;;;;;9860190;30;20236;-80
2023/03/14 10:27:34;;;;;;;7.70;4.90;;;10.80;99.90;;;;;;9865023;30;20248;-76
2023/03/14 10:32:55;;;;;;;14.77;6.97;;;10.70;99.90;;;;;;9866715;30;20211;-80
2023/03/14 10:38:17;;;;;;;25.00;11.80;;;10.70;99.90;;;;;;9881741;30;20256;-78
2023/03/14 10:43:38;;;;;;;13.07;6.13;;;10.70;99.90;;;;;;9881606;30;20203;-78
2023/03/14 10:49:05;;;;;;;13.00;6.73;;;10.70;99.90;;;;;;9874596;30;20247;-75
2023/03/14 10:54:30;;;;;;;8.67;5.80;;;10.80;99.90;;;;;;9889294;30;20243;-80
2023/03/14 10:59:53;;;;;;;6.07;4.23;;;10.90;99.90;;;;;;9893898;30;20405;-76
2023/03/14 11:05:26;;;;;;;11.50;6.67;;;11.40;99.90;;;;;;9917970;30;20242;-78
2023/03/14 11:10:54;;;;;;;6.33;3.30;;;11.60;99.90;;;;;;9909354;30;20238;-75
2023/03/14 11:16:38;;;;;;;5.20;2.60;;;11.60;99.90;;;;;;9880368;30;20297;-84
2023/03/14 11:22:08;;;;;;;11.83;7.60;;;11.50;99.90;;;;;;9840595;30;20592;-80
2023/03/14 11:27:59;;;;;;;11.13;5.07;;;11.40;99.90;;;;;;9883906;30;20242;-80
2023/03/14 11:33:20;;;;;;;11.40;6.03;;;11.40;99.90;;;;;;9873291;30;20390;-74
2023/03/14 11:38:48;;;;;;;19.73;9.10;;;12.30;99.90;;;;;;9886781;30;20224;-77
2023/03/14 11:44:34;;;;;;;8.43;3.03;;;13.80;99.90;;;;;;9876236;30;20535;-78
2023/03/14 11:50:16;;;;;;;5.93;2.70;;;14.80;99.90;;;;;;9852338;30;20302;-82
2023/03/14 11:55:41;;;;;;;31.48;18.05;;;14.70;99.90;;;;;;9849366;30;20253;-78
2023/03/14 12:01:09;;;;;;;6.33;3.83;;;14.10;99.90;;;;;;9862222;30;20224;-77
2023/03/14 12:06:46;;;;;;;5.47;2.72;;;13.90;99.90;;;;;;9850379;30;20206;-78
2023/03/14 12:12:16;;;;;;;12.53;5.13;;;13.80;99.90;;;;;;9894632;29;20218;-80
2023/03/14 12:17:43;;;;;;;8.05;3.45;;;14.00;99.90;;;;;;9878201;30;20303;-80
2023/03/14 12:23:10;;;;;;;7.27;3.17;;;13.80;99.90;;;;;;9888897;30;20221;-77
2023/03/14 12:28:31;;;;;;;10.17;4.03;;;14.00;99.90;;;;;;9885742;30;20251;-76
2023/03/14 12:34:03;;;;;;;10.30;3.25;;;14.60;99.90;;;;;;9887944;30;20364;-76
2023/03/14 12:39:56;;;;;;;7.37;2.63;;;15.00;99.90;;;;;;9864278;30;20538;-78
2023/03/14 12:45:30;;;;;;;8.77;2.73;;;14.60;99.90;;;;;;9896837;30;20398;-75
2023/03/14 12:51:00;;;;;;;13.13;4.33;;;13.80;99.90;;;;;;9899743;30;20234;-79
2023/03/14 12:56:59;;;;;;;6.70;3.63;;;13.40;99.90;;;;;;9887564;30;20247;-79
2023/03/14 13:59:40;;;;;;;5.23;2.63;;;13.70;99.90;;;;;;10592615;27;20553;-78
2023/03/14 14:05:01;;;;;;;28.60;15.80;;;13.50;99.90;;;;;;10557589;28;20398;-78
2023/03/14 14:10:37;;;;;;;15.17;7.73;;;13.40;99.90;;;;;;10560042;28;20404;-79
2023/03/14 14:16:00;;;;;;;11.73;8.53;;;13.20;99.90;;;;;;10591287;28;20307;-81
2023/03/14 14:21:21;;;;;;;8.40;4.10;;;13.00;99.90;;;;;;10574676;28;20520;-79
2023/03/14 14:27:24;;;;;;;8.53;4.03;;;12.80;99.90;;;;;;10574093;28;20483;-85
2023/03/14 14:32:49;;;;;;;12.37;6.37;;;12.80;99.90;;;;;;10590679;28;20195;-79
2023/03/14 14:38:17;;;;;;;13.40;6.17;;;12.60;99.90;;;;;;10568797;28;20229;-79
2023/03/14 14:43:40;;;;;;;19.77;10.43;;;12.70;99.90;;;;;;10561803;28;20446;-88
2023/03/14 14:49:08;;;;;;;13.83;7.63;;;12.70;99.90;;;;;;10564628;28;20283;-78
2023/03/14 14:54:58;;;;;;;6.17;3.37;;;12.70;99.90;;;;;;10550852;28;20261;-79
2023/03/14 15:00:27;;;;;;;9.27;5.23;;;12.60;99.90;;;;;;10560741;28;20211;-80
2023/03/14 15:05:48;;;;;;;8.30;3.97;;;12.40;99.90;;;;;;10570478;28;20203;-80
2023/03/14 15:11:24;;;;;;;6.97;3.50;;;12.20;99.90;;;;;;10537789;28;20214;-82
2023/03/14 15:16:46;;;;;;;9.67;4.87;;;12.10;99.90;;;;;;10575363;28;20231;-79
2023/03/14 15:22:14;;;;;;;11.37;3.70;;;11.90;99.90;;;;;;10550788;28;20249;-79
2023/03/14 15:27:35;;;;;;;5.27;2.40;;;11.80;99.90;;;;;;10543118;28;20261;-82
2023/03/14 15:32:56;;;;;;;12.50;5.93;;;11.50;99.90;;;;;;10559670;28;20467;-79
2023/03/14 15:38:22;;;;;;;47.83;31.53;;;11.30;99.90;;;;;;10558839;28;20236;-78
2023/03/14 15:43:43;;;;;;;13.40;8.23;;;11.20;99.90;;;;;;10559682;28;20525;-79
2023/03/14 15:49:04;;;;;;;16.97;8.23;;;11.20;99.90;;;;;;10558916;28;20226;-78
2023/03/14 15:54:29;;;;;;;31.10;20.10;;;11.30;99.90;;;;;;10529711;28;20268;-78
2023/03/14 15:59:50;;;;;;;24.00;14.60;;;11.20;99.90;;;;;;10559162;28;20314;-87
2023/03/14 16:05:12;;;;;;;25.90;14.70;;;11.20;99.90;;;;;;10529446;28;20552;-84
2023/03/14 16:10:34;;;;;;;25.37;15.40;;;11.20;99.90;;;;;;10523619;28;20228;-80
2023/03/14 16:16:01;;;;;;;129.10;55.63;;;11.10;99.90;;;;;;10542814;28;20255;-80
2023/03/14 16:21:22;;;;;;;28.87;16.00;;;11.00;99.90;;;;;;10546281;28;20209;-81
2023/03/14 16:26:44;;;;;;;16.70;9.23;;;10.90;41.80;;;;;;10562457;28;20187;-80
2023/03/14 16:32:05;;;;;;;11.00;6.13;;;10.80;74.50;;;;;;10556167;28;20209;-80
2023/03/14 16:37:26;;;;;;;14.13;6.33;;;10.80;99.90;;;;;;10542218;28;20489;-80
2023/03/14 16:42:47;;;;;;;8.83;4.10;;;10.80;99.90;;;;;;10572845;28;20208;-79
2023/03/14 16:48:29;;;;;;;5.00;2.57;;;10.70;99.90;;;;;;10577736;28;20199;-78
2023/03/14 16:53:50;;;;;;;16.00;12.07;;;10.60;99.90;;;;;;10576927;28;20513;-80
2023/03/14 16:59:11;;;;;;;14.30;8.93;;;10.50;99.90;;;;;;10518696;28;20243;-79
2023/03/14 17:04:32;;;;;;;16.67;11.00;;;10.40;99.90;;;;;;10552383;28;20201;-79
2023/03/14 17:09:53;;;;;;;17.57;10.97;;;10.40;99.90;;;;;;10512155;28;20486;-78
2023/03/14 17:15:24;;;;;;;15.07;8.60;;;10.30;99.90;;;;;;10524280;28;20211;-78
2023/03/14 17:20:46;;;;;;;30.57;15.57;;;10.40;99.90;;;;;;10570980;28;20206;-80
2023/03/14 17:26:08;;;;;;;66.63;33.77;;;10.30;99.90;;;;;;10561048;28;20196;-79
2023/03/14 17:31:29;;;;;;;70.30;41.03;;;10.10;99.90;;;;;;10546238;28;20207;-80
2023/03/14 17:36:50;;;;;;;88.07;47.57;;;10.00;99.90;;;;;;10548483;28;20303;-79
2023/03/14 17:42:11;;;;;;;98.07;52.50;;;9.90;99.90;;;;;;10526583;28;20245;-79
2023/03/14 17:47:32;;;;;;;95.40;46.87;;;9.90;99.90;;;;;;10560130;28;20196;-80
2023/03/14 17:52:53;;;;;;;62.87;34.17;;;9.80;99.90;;;;;;10544659;28;20201;-79
2023/03/14 17:58:15;;;;;;;33.10;18.53;;;9.80;99.90;;;;;;10561091;28;20447;-80
2023/03/14 18:03:36;;;;;;;20.10;10.77;;;9.80;99.90;;;;;;10536788;28;20420;-80
2023/03/14 18:08:58;;;;;;;18.93;9.73;;;9.90;99.90;;;;;;10553703;28;20540;-80
2023/03/14 18:14:20;;;;;;;21.07;10.00;;;9.80;99.90;;;;;;10560912;28;20191;-81
2023/03/14 18:19:41;;;;;;;27.70;11.63;;;9.90;99.90;;;;;;10558117;28;20306;-80
2023/03/14 18:25:03;;;;;;;22.23;10.07;;;9.90;99.90;;;;;;10563383;27;20524;-80
2023/03/14 18:30:24;;;;;;;28.77;11.33;;;9.90;99.90;;;;;;10532089;28;20222;-80
2023/03/14 18:35:46;;;;;;;34.10;12.87;;;9.90;99.90;;;;;;10533488;28;20230;-80
2023/03/14 18:41:08;;;;;;;17.87;7.67;;;9.80;99.90;;;;;;10517504;28;20527;-80
2023/03/14 18:46:30;;;;;;;8.63;4.30;;;9.80;99.90;;;;;;10539724;28;20551;-79
2023/03/14 18:51:51;;;;;;;10.50;4.17;;;9.80;99.90;;;;;;10559548;28;20535;-80
2023/03/14 18:57:12;;;;;;;4.63;2.00;;;9.70;99.90;;;;;;10583512;28;20244;-80
2023/03/14 19:02:34;;;;;;;6.77;4.27;;;9.50;99.90;;;;;;10566568;28;20205;-79
2023/03/14 19:07:56;;;;;;;7.50;4.00;;;8.60;99.90;;;;;;10571596;28;20281;-80
2023/03/14 19:13:18;;;;;;;6.07;2.87;;;;;;;;;;10525647;28;20484;-79
2023/03/14 19:18:40;;;;;;;7.47;3.80;;;7.30;99.90;;;;;;10551831;28;20223;-79
2023/03/14 19:24:03;;;;;;;7.17;3.30;;;;;;;;;;10546879;28;20201;-78
2023/03/14 19:29:24;;;;;;;7.50;4.00;;;6.10;99.90;;;;;;10554917;28;20503;-79
2023/03/14 19:34:45;;;;;;;7.27;2.43;;;5.70;99.90;;;;;;10549261;28;20204;-79
2023/03/14 19:40:08;;;;;;;7.17;3.00;;;;;;;;;;10565858;28;20225;-78
2023/03/14 19:45:31;;;;;;;8.67;2.50;;;4.90;99.90;;;;;;10563022;28;20240;-79
2023/03/14 19:50:53;;;;;;;11.13;3.40;;;4.60;99.90;;;;;;10523874;28;20194;-80
2023/03/14 19:56:14;;;;;;;9.17;2.90;;;4.40;99.90;;;;;;10548786;28;20317;-79
2023/03/14 20:01:37;;;;;;;7.40;3.23;;;4.30;99.90;;;;;;10556522;28;20493;-78
2023/03/14 20:06:58;;;;;;;3.20;1.80;;;4.40;99.90;;;;;;10526518;28;20201;-80
2023/03/14 20:12:19;;;;;;;5.83;2.70;;;4.30;99.90;;;;;;10523965;28;20205;-79
2023/03/14 20:17:40;;;;;;;10.07;3.60;;;4.20;99.90;;;;;;10559274;28;20232;-78
2023/03/14 20:23:02;;;;;;;5.17;2.03;;;4.10;99.90;;;;;;10562285;28;20199;-78
2023/03/14 20:28:24;;;;;;;11.40;3.40;;;4.10;99.90;;;;;;10548591;28;20202;-79
2023/03/14 20:33:45;;;;;;;8.30;2.53;;;4.10;99.90;;;;;;10561545;28;20200;-81
2023/03/14 20:39:06;;;;;;;5.23;2.53;;;4.10;99.90;;;;;;10525809;28;20549;-81
2023/03/14 20:44:27;;;;;;;6.93;2.70;;;4.00;99.90;;;;;;10579400;28;20702;-80
2023/03/14 20:49:48;;;;;;;8.57;2.57;;;4.00;99.90;;;;;;10548015;28;20207;-81
2023/03/14 20:55:10;;;;;;;6.73;2.77;;;3.90;99.90;;;;;;10553426;28;20239;-79
2023/03/14 21:00:31;;;;;;;7.57;3.10;;;3.70;99.90;;;;;;10562380;28;20381;-81
2023/03/14 21:05:52;;;;;;;3.10;2.00;;;;;;;;;;10520236;28;20582;-80
2023/03/14 21:11:13;;;;;;;2.17;1.30;;;3.60;99.90;;;;;;10574632;28;20191;-79
2023/03/14 21:16:34;;;;;;;4.17;1.70;;;3.60;99.90;;;;;;10546116;28;20224;-80
2023/03/14 21:22:01;;;;;;;4.90;1.97;;;3.50;99.90;;;;;;10532428;28;20437;-80
2023/03/14 21:27:22;;;;;;;2.60;1.27;;;3.40;99.90;;;;;;10546618;28;20221;-81
2023/03/14 21:32:43;;;;;;;2.33;1.30;;;3.40;99.90;;;;;;10559349;28;20386;-81
2023/03/14 21:38:04;;;;;;;2.53;1.23;;;3.40;99.90;;;;;;10533457;28;20232;-81
2023/03/14 21:43:26;;;;;;;0.90;0.70;;;3.50;99.90;;;;;;10519591;28;20203;-81
2023/03/14 21:48:47;;;;;;;4.67;1.60;;;3.40;99.90;;;;;;10529897;28;20496;-81
2023/03/14 21:54:09;;;;;;;3.23;1.23;;;3.50;99.90;;;;;;10575148;28;20211;-81
2023/03/14 21:59:32;;;;;;;6.17;1.63;;;3.60;99.90;;;;;;10539259;28;20240;-81
2023/03/14 22:04:53;;;;;;;4.37;1.53;;;3.50;99.90;;;;;;10548213;28;20241;-82
2023/03/14 22:10:15;;;;;;;6.27;1.90;;;3.60;99.90;;;;;;10560397;28;20311;-81
2023/03/14 22:15:36;;;;;;;4.23;1.67;;;3.60;99.90;;;;;;10559229;28;20234;-81
2023/03/14 22:20:58;;;;;;;7.47;2.17;;;3.60;99.90;;;;;;10538304;28;20390;-79
2023/03/14 22:26:19;;;;;;;2.70;1.57;;;3.60;99.90;;;;;;10585350;28;20197;-81
2023/03/14 22:31:40;;;;;;;2.63;1.63;;;3.70;99.90;;;;;;10567708;28;20207;-81
2023/03/14 22:37:04;;;;;;;7.03;1.53;;;3.70;99.90;;;;;;10540231;28;20248;-81
2023/03/14 22:42:25;;;;;;;7.30;1.77;;;3.70;99.90;;;;;;10526824;28;20214;-80
2023/03/14 22:47:46;;;;;;;8.77;2.47;;;3.80;99.90;;;;;;10547133;28;20204;-81
2023/03/14 22:53:07;;;;;;;4.43;1.90;;;3.70;99.90;;;;;;10567464;28;20199;-80
2023/03/14 22:58:28;;;;;;;8.63;2.17;;;3.70;99.90;;;;;;10567633;28;20237;-79
2023/03/14 23:03:49;;;;;;;7.13;2.00;;;3.80;99.90;;;;;;10578237;28;20230;-79
2023/03/14 23:09:11;;;;;;;7.10;1.97;;;3.70;99.90;;;;;;10569096;28;20203;-81
2023/03/14 23:14:32;;;;;;;14.43;2.33;;;3.70;99.90;;;;;;10565349;28;20245;-80
2023/03/14 23:19:53;;;;;;;8.13;1.80;;;3.60;99.90;;;;;;10564517;28;20244;-81
2023/03/14 23:25:14;;;;;;;8.33;1.73;;;3.60;99.90;;;;;;10551728;28;20494;-81
2023/03/14 23:30:38;;;;;;;8.53;2.07;;;3.70;99.90;;;;;;10563286;28;20380;-81
2023/03/14 23:36:02;;;;;;;5.47;1.73;;;3.70;99.90;;;;;;10545355;28;20419;-81
2023/03/14 23:41:24;;;;;;;9.53;2.13;;;3.70;99.90;;;;;;10523350;28;20196;-79
2023/03/14 23:46:45;;;;;;;12.13;2.37;;;3.60;99.90;;;;;;10526951;28;20354;-79
2023/03/14 23:52:07;;;;;;;15.93;3.63;;;3.60;99.90;;;;;;10523044;28;20199;-80
2023/03/14 23:57:28;;;;;;;9.03;2.30;;;3.50;99.90;;;;;;10542656;28;20313;-80
